Terminal Aerodrome Forecast
Issued by NWS Sterling, VA

Current Version | Previous Version | Graphics & Text | Print | Product List | Glossary On
Versions: 1 2 3 4 5 6 7 8 9 10 11 12 13 14 15 16 17 18 19 20 21 22 23 24
000
FTUS41 KLWX 042105 AAA
TAFMRB
TAF AMD
KMRB 042105Z 0421/0518 35004KT 2SM -RA BR OVC080
     FM042300 33005KT 2SM -RA BR OVC030
     FM050300 32006KT 3SM -RAPL BR OVC015
     FM050600 34008KT 3/4SM -SN OVC006=

USA.gov is the U.S. government's official web portal to all federal, state and local government web resources and services.